Bao Ning Ling — BRJO — position and weather

sailwx.info

Track history (hours):
 
Tides and Currents Weather Stations Pressure Air Temp Water Temp Dewpoint Dewpoint Depression Visibility Wind Speed Wind Dir Waves Ship Positions

Bao Ning Ling

Last reported at 2017-Nov-18 06:35 UTC. Time now 2017-Nov-19 12:24 UTC.
Position N 01°15' E 104°01'.

Length 189 m; draft 11 m.

Type: Cargo ship. MMSI: 414778000.

Date/timePositionNaut miles runAvg speedWind from/ knotsBaromVisibWave heightAir tempDewpointWater temp
2017-Nov-18 06:35N 01°15' E 104°01'110.2
2017-Nov-18 06:30N 01°15' E 103°60'3 5.1
2017-Nov-18 06:00N 01°16' E 103°58'0 0.3
2017-Nov-18 05:04N 01°17' E 103°58'0 0.0
2017-Nov-18 04:52N 01°17' E 103°58'0 0.2
2017-Nov-18 04:28N 01°17' E 103°58'0 0.2
2017-Nov-18 03:58N 01°17' E 103°58'1 0.1
2017-Nov-17 20:27N 01°16' E 103°57'2 5.7
2017-Nov-17 20:01N 01°14' E 103°56'5 8.3
2017-Nov-17 19:28N 01°11' E 103°52'4 9.4
2017-Nov-17 19:01N 01°10' E 103°48'2 4.3
2017-Nov-17 18:30N 01°09' E 103°46'3 5.7
2017-Nov-17 18:01N 01°06' E 103°45'5 9.7
2017-Nov-17 17:30N 01°03' E 103°41'510.4
2017-Nov-17 17:00N 01°05' E 103°36'612.4
2017-Nov-17 16:30N 01°07' E 103°30'712.7
2017-Nov-17 15:57N 01°11' E 103°24'612.8
2017-Nov-17 15:30N 01°15' E 103°20'  
Track history (hours):
 
Tides and Currents Weather Stations Pressure Air Temp Water Temp Dewpoint Dewpoint Depression Visibility Wind Speed Wind Dir Waves Ship Positions

Bao Ning Ling

Last reported at 2017-Nov-18 06:35 UTC. Time now 2017-Nov-19 12:24 UTC.
Position N 01°15' E 104°01'.

Length 189 m; draft 11 m.

Type: Cargo ship. MMSI: 414778000.

Date/timePositionNaut miles runAvg speedWind from/ knotsBaromVisibWave heightAir tempDewpointWater temp
2017-Nov-18 06:35N 01°15' E 104°01'110.2
2017-Nov-18 06:30N 01°15' E 103°60'3 5.1
2017-Nov-18 06:00N 01°16' E 103°58'0 0.3
2017-Nov-18 05:04N 01°17' E 103°58'0 0.0
2017-Nov-18 04:52N 01°17' E 103°58'0 0.2
2017-Nov-18 04:28N 01°17' E 103°58'0 0.2
2017-Nov-18 03:58N 01°17' E 103°58'1 0.1
2017-Nov-17 20:27N 01°16' E 103°57'2 5.7
2017-Nov-17 20:01N 01°14' E 103°56'5 8.3
2017-Nov-17 19:28N 01°11' E 103°52'4 9.4
2017-Nov-17 19:01N 01°10' E 103°48'2 4.3
2017-Nov-17 18:30N 01°09' E 103°46'3 5.7
2017-Nov-17 18:01N 01°06' E 103°45'5 9.7
2017-Nov-17 17:30N 01°03' E 103°41'510.4
2017-Nov-17 17:00N 01°05' E 103°36'612.4
2017-Nov-17 16:30N 01°07' E 103°30'712.7
2017-Nov-17 15:57N 01°11' E 103°24'612.8
2017-Nov-17 15:30N 01°15' E 103°20'  

Dump ship's entire track history